Apison, TN (37302)

4:31 PM EDT on August 04, 2015 (GMT -0400)
East Brainerd | | Change Station
CLOSE
Current Station
Personal Weather Station
Location: Chattanooga, TN
Elevation: 927 ft
Nearby Weather Stations

Elev 927 ft 35.00 °N, 85.13 °W | Updated 7 seconds ago

Partly Cloudy
Partly Cloudy
92.8 °F
Feels Like 100 °F
N
3.0
Wind Variable Wind from ESE
Gusts 6.0 mph

Today
High -- | Low -- °F
--% Chance of Precip.
Yesterday
High -- | Low -- °F
Precip. -- in
6:51 AM 8:40 PM
Waning Gibbous, 74% visible
Pressure 29.96 in
Visibility 10.0 miles
Clouds Scattered Clouds 6500 ft
Scattered Clouds 25000 ft
Mostly Cloudy 30000 ft
Heat Index 100 °F
Dew Point 71 °F
Humidity 49%
Rainfall 0.00 in
Snow Depth Not available.
UV 5 out of 12
Pollen 4.90 out of 12
Air Quality Not available.
Flu Activity Not available.
METAR KCHA 041953Z VRB04KT 10SM SCT065TCU SCT250 BKN300 36/17 A2999 RMK AO2 SLP145 TCU S T03560167

More Conditions Fewer Conditions

Pressure 29.96 in
Visibility 10.0 miles
Clouds Scattered Clouds 6500 ft
Scattered Clouds 25000 ft
Mostly Cloudy 30000 ft
Heat Index 100 °F
Dew Point 71 °F
Humidity 49%
Rainfall 0.00 in
Snow Depth Not available.
UV 5 out of 12
Pollen 4.90 out of 12
Air Quality Not available.
Flu Activity Not available.
METAR KCHA 041953Z VRB04KT 10SM SCT065TCU SCT250 BKN300 36/17 A2999 RMK AO2 SLP145 TCU S T03560167

More Conditions Fewer Conditions

10-Day Weather Forecast

×

Almanac

Astronomy

Aug. 04, 2015 Rise Set
Actual Time
Civil Twilight
Nautical Twilight
Astronomical Twilight
Moon
Length of Visible Light
Length of Day
Tomorrow will be .
, % of the Moon is Illuminated

Today's Extremes

State Highs State Lows

Community

WunderPhotos

Upload Photos

1,843,971 photos uploaded!

WunderBlogs® & News

Nearby

Air Quality

  Air Quality AQ Index Pollutant
Not available.

Snow Depth

Station Depth Elevation

Earthquake Activity

City Distance Mag. Time & Date
Minimum magnitude displayed is 2.5.

Coastal Water Temperatures

Place Temperature

Stations

Nearby Weather Stations

Station Location Temp. Windchill Dew Point Humidity Wind Precip. Elev Updated Type